• Join FlightAware (Why Join?)
  • Login
  • US Flag 
11:47PM EDT


 

Airport Tracker/Info


-or-


 

Live Flight TrackerFlight Track Log ✈ NKS922 ✈ 22-Apr-2013 ✈ KMYR - KLGA

Flight Track Log - Related Links

Times and Time Zones

All times are in EDT time to prevent confusion due to time zone crossing. See the NKS922 flight status page for this flight to view local times or setup timezone preferences in your user account.

Time Position Orientation Groundspeed Altitude Reporting Facility
EDT Latitude Longitude Course Direction KTS MPH feet Rate Location/Type
04:06PM 33.7678 -78.9278 48° Northeast 206 237 3,800  Level Jacksonville Center
04:07PM 33.7822 -78.8522 77° East 271 312 6,800 3,180 Climbing Jacksonville Center
04:08PM 33.8022 -78.7614 75° East 277 319 10,200 2,520 Climbing Jacksonville Center
04:10PM 33.8919 -78.6014 56° Northeast 314 361 13,900 2,040 Climbing Washington Center
04:11PM 34.0870 -78.2841 48° Northeast  Level FlightAware Approximate
04:11PM 33.9569 -78.5011 52° Northeast 344 396 16,000  Level Washington Center
04:12PM 34.0264 -78.3958 51° Northeast 380 437 17,700 1,800 Climbing Washington Center
04:13PM 34.1044 -78.2706 53° Northeast 407 468 19,700 1,980 Climbing Washington Center
04:14PM 34.1819 -78.1525 52° Northeast 429 494 21,700 1,800 Climbing Washington Center
04:15PM 34.2531 -78.0417 52° Northeast 452 520 23,400 1,620 Climbing Washington Center
04:16PM 34.3700 -77.9394 36° Northeast 452 520 25,000 1,500 Climbing Washington Center
04:17PM 34.4944 -77.8750 23° Northeast 467 537 26,400 960 Climbing Washington Center
04:18PM 34.6306 -77.8461 10° North 473 544 27,000 300 Climbing Washington Center
04:19PM 34.7664 -77.8347 North 473 544 27,100 300 Climbing Washington Center
04:24PM 35.5480 -77.7500 North 500 575 29,000 360 Climbing FlightAware
04:25PM 35.6410 -77.7400 North 514 592 29,400 900 Climbing FlightAware
04:26PM 35.7500 -77.7280 North 520 598 30,300 1,380 Climbing FlightAware
04:26PM 35.8460 -77.7180 North 516 594 31,400 1,260 Climbing FlightAware
04:27PM 35.9330 -77.7070 North 523 602 32,000 600 Climbing FlightAware
04:28PM 36.0660 -77.6710 12° North 529 609 32,400 240 Climbing FlightAware
04:29PM 36.1470 -77.6480 13° North 529 609 32,400  Level FlightAware
04:29PM 36.2280 -77.6250 13° North 529 609 32,400  Level FlightAware
04:30PM 36.3090 -77.6020 13° North 529 609 32,400  Level FlightAware
04:31PM 36.3900 -77.5790 13° North 529 609 32,400  Level FlightAware
04:31PM 36.4910 -77.5500 13° North 529 609 32,400 480 Level FlightAware
04:32PM 36.6460 -77.4160 35° Northeast 524 603 33,200 600 Climbing FlightAware
04:33PM 36.7240 -77.3820 19° North 524 603 33,200  Level FlightAware
04:33PM 36.8020 -77.3490 19° North 524 603 33,200  Level FlightAware
04:34PM 36.9000 -77.3070 19° North 524 603 33,200  Level FlightAware
04:35PM 36.9780 -77.2730 19° North 524 603 33,200 1,320 Level FlightAware
04:36PM 37.1480 -77.1960 20° North 549 632 35,000 1,260 Climbing FlightAware
04:36PM 37.2610 -77.1470 19° North 545 627 35,000  Level FlightAware
04:37PM 37.3840 -77.0760 25° Northeast 548 631 35,000  Level FlightAware
04:38PM 37.4980 -76.9910 31° Northeast 548 631 35,000  Level FlightAware
04:39PM 37.6000 -76.9060 33° Northeast 566 651 35,000  Level FlightAware
04:40PM 37.6810 -76.8410 32° Northeast 569 655 35,000  Level FlightAware
04:40PM 37.7640 -76.7730 33° Northeast 566 651 35,000  Level FlightAware
04:41PM 37.8780 -76.6790 33° Northeast 559 643 35,000  Level FlightAware
04:42PM 37.9792 -76.5961 33° Northeast 568 654 35,000  Level FlightAware ADS-B
04:42PM 38.0742 -76.5178 33° Northeast 568 654 35,000  Level FlightAware ADS-B
04:43PM 38.1564 -76.4499 33° Northeast 570 656 35,000  Level FlightAware ADS-B
04:44PM 38.2328 -76.3865 33° Northeast 571 657 35,000  Level FlightAware ADS-B
04:44PM 38.3104 -76.3222 33° Northeast 572 658 35,000  Level FlightAware ADS-B
04:45PM 38.3798 -76.2645 33° Northeast 573 659 35,000 -420 Level FlightAware ADS-B
04:45PM 38.4511 -76.2048 33° Northeast 571 657 34,600 -780 Descending FlightAware ADS-B
04:46PM 38.5209 -76.1464 33° Northeast 562 647 34,200 -900 Descending FlightAware ADS-B
04:46PM 38.5871 -76.0910 33° Northeast 561 646 33,700 -1,500 Descending FlightAware ADS-B
04:47PM 38.6552 -76.0335 33° Northeast 557 641 32,700 -2,340 Descending FlightAware ADS-B
04:47PM 38.7280 -75.9723 33° Northeast 552 635 31,200 -2,880 Descending FlightAware ADS-B
04:48PM 38.7979 -75.9137 33° Northeast 554 638 29,500 -2,640 Descending FlightAware ADS-B
04:49PM 38.8693 -75.8533 33° Northeast 544 626 28,300 -2,100 Descending FlightAware ADS-B
04:49PM 38.9354 -75.7969 34° Northeast 533 613 27,200 -1,260 Descending FlightAware ADS-B
04:50PM 39.0008 -75.7389 35° Northeast 524 603 27,000 -240 Descending FlightAware ADS-B
04:50PM 39.0621 -75.6794 37° Northeast 524 603 27,000 -780 Level FlightAware ADS-B
04:51PM 39.1222 -75.6213 37° Northeast 529 609 26,200 -1,800 Descending FlightAware ADS-B
04:51PM 39.1811 -75.5649 37° Northeast 516 594 25,200 -1,440 Descending FlightAware ADS-B
04:52PM 39.2465 -75.5026 36° Northeast 485 558 24,700 -960 Descending FlightAware ADS-B
04:52PM 39.2877 -75.4653 35° Northeast 466 536 24,300 -1,440 Descending FlightAware ADS-B
04:53PM 39.3429 -75.4173 34° Northeast 457 526 23,400 -1,380 Descending FlightAware ADS-B
04:53PM 39.3946 -75.3715 34° Northeast 434 499 22,900 -1,320 Descending FlightAware ADS-B
04:54PM 39.4436 -75.3282 34° Northeast 419 482 22,100 -1,800 Descending FlightAware ADS-B
04:54PM 39.4934 -75.2840 34° Northeast 412 474 21,100 -1,980 Descending FlightAware ADS-B
04:55PM 39.5406 -75.2411 35° Northeast 405 466 20,100 -1,860 Descending FlightAware ADS-B
04:55PM 39.5898 -75.1947 36° Northeast 395 455 19,200 -1,020 Descending FlightAware ADS-B
04:56PM 39.6367 -75.1505 36° Northeast 391 450 19,000 -240 Descending FlightAware ADS-B
04:56PM 39.6818 -75.1081 36° Northeast 391 450 19,000  Level FlightAware ADS-B
04:57PM 39.7270 -75.0681 34° Northeast 389 448 19,000 -600 Level FlightAware ADS-B
04:58PM 39.7923 -75.0131 33° Northeast 377 434 18,300 -1,980 Descending FlightAware ADS-B
04:58PM 39.8391 -74.9728 33° Northeast 371 427 16,500 -2,760 Descending FlightAware ADS-B
04:59PM 39.8830 -74.9344 34° Northeast 367 422 15,400 -2,040 Descending FlightAware ADS-B
04:59PM 39.9134 -74.9064 35° Northeast 363 418 14,700 -1,980 Descending FlightAware ADS-B
04:59PM 39.9249 -74.8939 40° Northeast 363 418 14,400 -1,920 Descending FlightAware ADS-B
04:59PM 39.9398 -74.8735 46° Northeast 362 417 14,000 -1,980 Descending FlightAware ADS-B
05:00PM 39.9737 -74.8246 48° Northeast 360 414 13,000 -1,980 Descending FlightAware ADS-B
05:00PM 40.0077 -74.7759 48° Northeast 355 409 12,000 -1,800 Descending FlightAware ADS-B
05:01PM 40.0409 -74.7284 48° Northeast 353 406 11,200 -1,980 Descending FlightAware ADS-B
05:01PM 40.0717 -74.6845 47° Northeast 334 384 10,100 -2,040 Descending FlightAware ADS-B
05:02PM 40.0883 -74.6605 48° Northeast 325 374 9,700 -1,140 Descending FlightAware ADS-B
05:02PM 40.1035 -74.6388 48° Northeast 311 358 9,500 -1,200 Descending FlightAware ADS-B
05:02PM 40.1200 -74.6238 35° Northeast 297 342 9,100 -1,860 Descending FlightAware ADS-B
05:02PM 40.1313 -74.6197 16° North 297 342 8,800 -2,280 Descending FlightAware ADS-B
05:02PM 40.1418 -74.6193 North 298 343 8,500 -1,860 Descending FlightAware ADS-B
05:02PM 40.1487 -74.6205 352° North 295 339 8,400 -600 Descending FlightAware ADS-B
05:03PM 40.1695 -74.6254 350° North 286 329 8,300 -600 Descending FlightAware ADS-B
05:03PM 40.1895 -74.6306 349° North 271 312 8,100 -840 Descending FlightAware ADS-B
05:03PM 40.1966 -74.6321 351° North 267 307 8,000 -600 Descending FlightAware ADS-B
05:03PM 40.2018 -74.6325 357° North 267 307 8,000 -900 Level FlightAware ADS-B
05:03PM 40.2060 -74.6322 North 265 305 7,900 -1,500 Descending FlightAware ADS-B
05:03PM 40.2114 -74.6308 11° North 265 305 7,800 -780 Descending FlightAware ADS-B
05:03PM 40.2151 -74.6292 18° North 264 304 7,800 -1,020 Level FlightAware ADS-B
05:03PM 40.2184 -74.6273 24° Northeast 262 302 7,700 -900 Descending FlightAware ADS-B
05:03PM 40.2222 -74.6245 29° Northeast 262 302 7,700 -540 Level FlightAware ADS-B
05:04PM 40.2303 -74.6171 35° Northeast 255 293 7,600 -600 Descending FlightAware ADS-B
05:04PM 40.2432 -74.6043 37° Northeast 246 283 7,500 -480 Descending FlightAware ADS-B
05:04PM 40.2557 -74.5921 37° Northeast 234 269 7,400 -240 Descending FlightAware ADS-B
05:04PM 40.2702 -74.5782 36° Northeast 220 253 7,400  Level FlightAware ADS-B
05:05PM 40.2814 -74.5676 36° Northeast 215 247 7,400  Level FlightAware ADS-B
05:05PM 40.2939 -74.5557 36° Northeast 213 245 7,400  Level FlightAware ADS-B
05:05PM 40.3060 -74.5446 35° Northeast 211 243 7,400  Level FlightAware ADS-B
05:05PM 40.3156 -74.5353 36° Northeast 212 244 7,400  Level FlightAware ADS-B
05:06PM 40.3278 -74.5237 36° Northeast 212 244 7,400  Level FlightAware ADS-B
05:06PM 40.3320 -74.5187 42° Northeast 212 244 7,400  Level FlightAware ADS-B
05:06PM 40.3351 -74.5142 48° Northeast 210 242 7,400  Level FlightAware ADS-B
05:06PM 40.3410 -74.5035 54° Northeast 210 242 7,400  Level FlightAware ADS-B
05:06PM 40.3503 -74.4855 56° Northeast 210 242 7,400  Level FlightAware ADS-B
05:06PM 40.3600 -74.4668 56° Northeast 210 242 7,400  Level FlightAware ADS-B
05:07PM 40.3687 -74.4498 56° Northeast 211 243 7,400  Level FlightAware ADS-B
05:07PM 40.3810 -74.4260 56° Northeast 210 242 7,400  Level FlightAware ADS-B
05:07PM 40.3902 -74.4083 56° Northeast 210 242 7,400  Level FlightAware ADS-B
05:08PM 40.4000 -74.3894 56° Northeast 208 239 7,400 -540 Level FlightAware ADS-B
05:08PM 40.4099 -74.3705 55° Northeast 205 236 7,100 -1,140 Descending FlightAware ADS-B
05:08PM 40.4183 -74.3550 55° Northeast 206 237 6,800 -960 Descending FlightAware ADS-B
05:09PM 40.4272 -74.3392 53° Northeast 197 227 6,600 -540 Descending FlightAware ADS-B
05:09PM 40.4372 -74.3218 53° Northeast 195 224 6,500 -360 Descending FlightAware ADS-B
05:09PM 40.4474 -74.3040 53° Northeast 197 227 6,400 -180 Descending FlightAware ADS-B
05:10PM 40.4600 -74.2821 53° Northeast 197 227 6,400  Level FlightAware ADS-B
05:10PM 40.4685 -74.2673 53° Northeast 195 224 6,400  Level FlightAware ADS-B
05:10PM 40.4767 -74.2524 54° Northeast 195 224 6,400  Level FlightAware ADS-B
05:10PM 40.4795 -74.2442 66° East 190 219 6,400  Level FlightAware ADS-B
05:10PM 40.4806 -74.2399 71° East 189 217 6,400 -840 Level FlightAware ADS-B
05:11PM 40.4848 -74.2214 73° East 186 214 6,100 -1,380 Descending FlightAware ADS-B
05:11PM 40.4940 -74.1740 76° East 164 189 4,900 -1,620 Descending FlightAware
05:12PM 40.5000 -74.1630 54° Northeast 167 192 4,400 -2,100 Descending FlightAware
05:12PM 40.5140 -74.1450 44° Northeast 169 194 3,500 -2,100 Descending FlightAware
05:12PM 40.5220 -74.1340 46° Northeast 164 189 3,000 -1,620 Descending FlightAware
05:13PM 40.5380 -74.1120 46° Northeast 171 197 2,300 -1,200 Descending FlightAware
05:13PM 40.5460 -74.0990 51° Northeast 160 184 2,100 -300 Descending FlightAware
05:13PM 40.5590 -74.0790 49° Northeast 165 190 2,100  Level FlightAware
05:14PM 40.5720 -74.0580 51° Northeast 166 191 2,100  Level FlightAware
05:14PM 40.5850 -74.0380 49° Northeast 169 194 2,100  Level FlightAware
05:15PM 40.6050 -74.0200 34° Northeast 169 194 2,100  Level FlightAware
05:15PM 40.6210 -74.0070 32° Northeast 170 196 2,100  Level FlightAware
05:16PM 40.6410 -73.9900 33° Northeast 169 194 2,100  Level FlightAware
05:16PM 40.6610 -73.9740 31° Northeast 172 198 2,100  Level FlightAware